Shemya, Eareckson Air Station (PASY)

NameEareckson Air Station
CityShemya
CountryUnited States
ICAOPASY
IATASYA
Altitude30 m
CoordinatesGoogle Map
Live Air TrafficLiveATC.net
METARPASY 251655Z 28012KT 7SM OVC060 03/01 A2979
2020-04-25 16:55:00 Wind: West (280°) 6.17 m/s - Visibility: 11265.38 m - Temperature: 3 °C - Dew point: 1 °C - Humidity: 86.9% - Pressure: 1008.81 hPa

Sorry, no flights used the airport in this database.